Stony Plain, Canada
Current Conditions -  °F | °C
As of 5:00 AM on Monday 24 Nov 2014 (Local Time) from CWSE Reporting Station
Light Snow Light Snow  
Wind Chill: 23°   Ceiling: 3900
Heat Index: 32°   Visibility: 15mi
Dew Point: 27°   Wind: 12mph
Humidity: 81%   Direction: 280°W
Pressure: 29.89"   Gusts: NA
Location:  53.53°N, 114.01°W
Report Text: CWSE 241200Z 28010KT 15SM -SN BKN039 OVC074 00/M03 A2989 RMK SLP161 T00021027 WSI/SWOB
Loading
Personal Weather Stations






























Interactive Weather Map New forecast layout! Learn more

10-Day Weather Forecast

Advertisements
Track Severe Weather on mobile